Renfro Valley, KY (40473)

9:03 AM EDT on July 24, 2014 (GMT -0400)
K. Bracketts Weather Station 39 N (KKYCRABO2) Elev 952 ft | 37.47 °N, 84.51 °W | Change Station
Active Advisory: Special Statement Active Notice: Local Storm Report

Current weather conditions updated 2 seconds ago

Overcast
Overcast
66.9 °F
Feels Like 66.9 °F
N
0.0
Wind Variable Wind from North
Gusts 2.2 mph

Today is forecast to be Much Cooler than yesterday. Thunderstorms early.

Today
High -- | Low -- °F
--% Chance of Precip.
Yesterday
High -- | Low -- °F
Precip. -- in
6:35 AM 8:52 PM
Waning Crescent, 5% visible
Pressure 30.01 in
Visibility 5.0 miles
Clouds Overcast 500 ft
Dew Point 67 °F
Humidity 99%
Rainfall 0.02 in
Snow Depth Not available.
UV 1 out of 12
Pollen 2.20 out of 12
Air Quality Not available.
Flu Activity Not available.
METAR KI39 241255Z AUTO 01006KT 5SM OVC005 18/16 A3001 RMK AO2

More Conditions Fewer Conditions

Pressure 30.01 in
Visibility 5.0 miles
Clouds Overcast 500 ft
Dew Point 67 °F
Humidity 99%
Rainfall 0.02 in
Snow Depth Not available.
UV 1 out of 12
Pollen 2.20 out of 12
Air Quality Not available.
Flu Activity Not available.
METAR KI39 241255Z AUTO 01006KT 5SM OVC005 18/16 A3001 RMK AO2

More Conditions Fewer Conditions

10-Day Weather Forecast

Almanac

Astronomy

Jul. 24, 2014 Rise Set
Actual Time 6:35 AM EDT 8:52 PM EDT
Civil Twilight 6:05 AM EDT 9:21 PM EDT
Nautical Twilight 5:29 AM EDT 9:57 PM EDT
Astronomical Twilight 4:49 AM EDT 10:37 PM EDT
Moon 4:41 AM EDT 7:07 PM EDT
Length of Visible Light 15h 15m
Length of Day
14h 16m
Tomorrow will be 1m 33s shorter.
Waning Crescent, 5% of the Moon is Illuminated
Today
Waning Crescent
Jul 26
New
Aug 3
First Quarter
Aug 10
Full
Aug 17
Last Quarter

Today's Extremes

State Highs State Lows

Community

WunderPhotos

Upload Photos

1,736,993 photos uploaded!

Nearby

Snow Depth

Station Depth Elevation
No new snow has been reported.

Earthquake Activity

City Distance Mag. Time & Date
No recent earthquake activity has been reported nearby.
Minimum magnitude displayed is 2.5.

Coastal Water Temperatures

Place Temperature
No Stations Reporting

Nearby Weather Stations

Station Location Temp. Dew Point Humidity Wind Precip. Elev Updated Type
K. Bracketts Weather Station 39 N, Crab Orchard, KY 66.9 °F 67 °F 99% North  at  0.0 mph 0.02 in / hr 952 ft 9:03 AM EDT Rapid Fire
Bratcher Lane, Berea, KY 66.0 °F 64 °F 95% NNE  at  2.7 mph - / hr 1001 ft 8:58 AM EDT Normal
HALLS BACKYARD WEATHER, SCIENCE HILL, KY 71.3 °F 70 °F 95% WSW  at  0.0 mph 0.00 in / hr 1076 ft 9:02 AM EDT Normal
Southern McKee, McKee, KY 69.4 °F 68 °F 94% SSW  at  0.0 mph 0.00 in / hr 1138 ft 9:03 AM EDT Rapid Fire
RMR - Somerset, Ferguson, KY 70.6 °F 71 °F 100% South  at  0.0 mph 0.05 in / hr 909 ft 9:00 AM EDT Normal

Show More Stations Show Fewer Stations